Back to Top

Current Local METAR Station Weather Reports...

Local METAR Reports

Local METAR Reports

 

EGNJ - Humberside, United Kingdom
Distance from station: ESE 12mi, 20km
Updated: Wed, 02-Dec-2020 8:50pm GMT
Mostly Cloudy
Mostly Cloudy
 Wind from SSW
Wind: SSW 14 mph , 22 km/h
Temperature: 5°C
Wind Chill: 1°C
Dew Point: 3°C
Humidity: 87%
Barometer: 1008 hPa
Clouds: Mostly Cloudy
Visibility: 6 miles , 10 km
Cloud details: Mostly Cloudy 823 m
Mostly Cloudy 975 m
2020/12/02 20:50 EGNJ 022050Z AUTO 21012KT 9999 BKN027/// BKN032/// 05/03 Q1008
EGXV - Leconfield (aut), United Kingdom
Distance from station: NNE 16mi, 26km
Updated: Wed, 02-Dec-2020 8:50pm GMT
Partly Cloudy
Partly Cloudy
 Wind from SSW
Wind: SSW 5 mph , 7 km/h
Temperature: 4°C
Wind Chill: 2°C
Dew Point: 2°C
Humidity: 87%
Barometer: 1007 hPa
Clouds: Partly Cloudy
Visibility: 6 miles , 10 km
Cloud details: Partly Cloudy 792 m
Partly Cloudy 914 m
2020/12/02 20:50 EGXV 022050Z AUTO 21004KT 9999 SCT026/// SCT030/// 04/02 Q1007
 
EGCN - Doncaster Sheffi, United Kingdom
Distance from station: SW 20mi, 32km
Updated: Wed, 02-Dec-2020 8:50pm GMT
Partly Cloudy
Partly Cloudy
 Wind from SSW
Wind: SSW 7 mph , 11 km/h
Temperature: 2°C
Wind Chill: -1°C
Dew Point: 1°C
Humidity: 93%
Barometer: 1009 hPa
Clouds: Partly Cloudy
Visibility: 6 miles , 10 km
Cloud details: Few Clouds 762 m
Partly Cloudy 945 m
2020/12/02 20:50 EGCN 022050Z 21006KT 9999 FEW025 SCT031 02/01 Q1009
EGXP - Scampton Raf, United Kingdom
Distance from station: S 25mi, 39km
Updated: Wed, 02-Dec-2020 8:50pm GMT
Few Clouds
Few Clouds
 Wind from SW
Wind: SW 9 mph , 15 km/h
Temperature: 3°C
Wind Chill: -1°C
Dew Point: 2°C
Humidity: 93%
Barometer: 1008 hPa
Clouds: Few Clouds
Visibility: 6 miles , 10 km
Cloud details: Few Clouds 945 m
2020/12/02 20:50 EGXP 022050Z AUTO 22008KT 9999 // FEW031/// 03/02 Q1008
 
EGXW - Waddington Raf, United Kingdom
Distance from station: S 33mi, 53km
Updated: Wed, 02-Dec-2020 8:50pm GMT
Partly Cloudy
Partly Cloudy
 Wind from SW
Wind: SW 10 mph , 17 km/h
Temperature: 4°C
Wind Chill: 0°C
Dew Point: 2°C
Humidity: 87%
Barometer: 1009 hPa
Clouds: Partly Cloudy
Visibility: 6 miles , 10 km
Cloud details: Partly Cloudy 1372 m
2020/12/02 20:50 EGXW 022050Z AUTO 22009KT 9999 SCT045/// 04/02 Q1009
EGXS - Donna Nook Raf, United Kingdom
Distance from station: ESE 33mi, 54km
Updated: Wed, 02-Dec-2020 8:50pm GMT
Few Clouds
Few Clouds
 Wind from SW
Wind: SW 12 mph , 19 km/h
Temperature: 4°C
Wind Chill: 0°C
Dew Point: 2°C
Humidity: 87%
Barometer: 1008 hPa
Clouds: Few Clouds
Visibility: 6 miles , 10 km
Cloud details: Few Clouds 1341 m
2020/12/02 20:50 EGXS 022050Z AUTO 22010KT 9999 // FEW044/// 04/02 Q1008
 
EGXU - Linton-On-Ouse R, United Kingdom
Distance from station: NW 38mi, 61km
Updated: Wed, 02-Dec-2020 8:50pm GMT
Overcast
Overcast
 Wind from WSW
Wind: WSW 14 mph , 22 km/h, Gust: 25 mph , 41 km/h
Temperature: 5°C
Wind Chill: 1°C
Dew Point: 2°C
Humidity: 81%
Barometer: 1006 hPa
Clouds: Overcast
Visibility: 6 miles , 10 km
Cloud details: Overcast 6401 m
2020/12/02 20:50 EGXU 022050Z AUTO 25012G22KT 9999 OVC210/// 05/02 Q1006
EGXC - Coningsby Raf, United Kingdom
Distance from station: SSE 42mi, 68km
Updated: Wed, 02-Dec-2020 8:50pm GMT
Mostly Cloudy
Mostly Cloudy
 Wind from WSW
Wind: WSW 6 mph , 9 km/h
Temperature: 2°C
Wind Chill: -1°C
Dew Point: 2°C
Humidity: 100%
Barometer: 1009 hPa
Clouds: Mostly Cloudy
Visibility: 6 miles , 10 km
Cloud details: Mostly Cloudy 1219 m
Mostly Cloudy 6706 m
2020/12/02 20:50 EGXC 022050Z 25005KT 9999 BKN040 BKN220 02/02 Q1009 RMK BLU
 
EGYD - Cranwell Raf, United Kingdom
Distance from station: S 43mi, 69km
Updated: Wed, 02-Dec-2020 8:50pm GMT
Few Clouds
Few Clouds
 Wind from WSW
Wind: WSW 12 mph , 19 km/h
Temperature: 3°C
Wind Chill: -2°C
Dew Point: 2°C
Humidity: 93%
Barometer: 1009 hPa
Clouds: Few Clouds
Visibility: 6 miles , 10 km
Cloud details: Few Clouds 884 m
2020/12/02 20:50 EGYD 022050Z AUTO 24010KT 9999 // FEW029/// 03/02 Q1009
EGNM - Leeds And Bradfo, United Kingdom
Distance from station: WNW 44mi, 71km
Updated: Wed, 02-Dec-2020 11:50am GMT
NOT Current
Partly Cloudy
Partly Cloudy
 Wind from W
Wind: W 15 mph , 24 km/h
Temperature: 7°C
Wind Chill: 3°C
Dew Point: 4°C
Humidity: 81%
Barometer: 1014 hPa
Clouds: Partly Cloudy
Visibility: 6 miles , 10 km
Cloud details: Few Clouds 274 m
Partly Cloudy 914 m
2020/12/02 11:50 EGNM 021150Z 28013KT 9999 FEW009 SCT030 07/04 Q1014
 
EGXZ - Topcliffe Raf, United Kingdom
Distance from station: NW 49mi, 79km
Updated: Wed, 02-Dec-2020 8:50pm GMT
Few Clouds
Few Clouds
 Wind from SW
Wind: SW 6 mph , 9 km/h
Temperature: 4°C
Wind Chill: 2°C
Dew Point: 2°C
Humidity: 87%
Barometer: 1006 hPa
Clouds: Few Clouds
Visibility: 6 miles , 10 km
Cloud details: Few Clouds 2438 m
2020/12/02 20:50 EGXZ 022050Z AUTO 23005KT 9999 FEW080/// 04/02 Q1006
EGXE - Leeming Raf, United Kingdom
Distance from station: NW 57mi, 92km
Updated: Wed, 02-Dec-2020 8:50pm GMT
Clear
Clear
 Wind from SW
Wind: SW 9 mph , 15 km/h
Temperature: 4°C
Wind Chill: 1°C
Dew Point: 1°C
Humidity: 81%
Barometer: 1006 hPa
Summary: Clear
Visibility: greater than 7 miles , 10 km
2020/12/02 20:50 EGXE 022050Z 22008KT CAVOK 04/01 Q1006 NOSIG RMK BLU BLU
 
EGYH - Holbeach (aut), United Kingdom
Distance from station: SSE 63mi, 101km
Updated: Wed, 02-Dec-2020 1:50pm GMT
NOT Current
Light rain, Mostly cloudy
Light rain, Mostly cloudy
 Wind from WSW
Wind: WSW 13 mph , 20 km/h
Temperature: 6°C
Wind Chill: 2°C
Dew Point: 5°C
Humidity: 93%
Barometer: 1013 hPa
Summary: Light Rain
Clouds: Mostly Cloudy
Visibility: 3 miles , 5 km
Cloud details: Mostly Cloudy 762 m
2020/12/02 13:50 EGYH 021350Z 25011KT 5000 -RA BKN025 06/05 Q1013 RMK WHT
EGNX - East Midlands, United Kingdom
Distance from station: SSW 65mi, 104km
Updated: Wed, 02-Dec-2020 8:50pm GMT
Clear
Clear
 Wind from SSW
Wind: SSW 8 mph , 13 km/h
Temperature: 3°C
Wind Chill: -1°C
Dew Point: 1°C
Humidity: 87%
Barometer: 1009 hPa
Summary: Clear
Visibility: greater than 7 miles , 10 km
2020/12/02 20:50 EGNX 022050Z 21007KT CAVOK 03/01 Q1009
 
EGNV - Tees-Side, United Kingdom
Distance from station: NNW 68mi, 109km
Updated: Wed, 02-Dec-2020 8:50pm GMT
Clear
Clear
 Wind from SSW
Wind: SSW 8 mph , 13 km/h
Temperature: 4°C
Wind Chill: 1°C
Dew Point: 1°C
Humidity: 81%
Barometer: 1006 hPa
Summary: Clear
Visibility: greater than 7 miles , 10 km
2020/12/02 20:50 EGNV 022050Z 20007KT CAVOK 04/01 Q1006
EGCC - Manchester Intl, United Kingdom
Distance from station: WSW 71mi, 114km
Updated: Wed, 02-Dec-2020 8:50pm GMT
Thunderstorm
Thunderstorm
 Wind from SSW
Wind: SSW 6 mph , 9 km/h
Temperature: 4°C
Wind Chill: 2°C
Dew Point: 2°C
Humidity: 87%
Barometer: 1008 hPa
Clouds: Thunderstorm
Visibility: 6 miles , 10 km
2020/12/02 20:50 EGCC 022050Z AUTO 20005KT 9999 //////TCU 04/02 Q1008

Metar display script from Saratoga-Weather.org

Data updates at regular intervals.